createdAt,value
2019-01-08T03:17:34.766Z,-5.38
2019-01-08T04:01:35.066Z,-5.35
2019-01-08T04:02:06.424Z,-5.37
2019-01-08T04:02:37.935Z,-5.39
2019-01-08T04:03:10.713Z,-5.39
2019-01-08T04:03:42.026Z,-5.24
2019-01-08T04:04:15.688Z,-5.08
2019-01-08T04:04:47.019Z,-5.07
2019-01-08T04:05:18.543Z,-5.04
2019-01-08T04:05:51.971Z,-5.08
2019-01-08T04:06:26.673Z,-5.05
2019-01-08T04:06:58.126Z,-5.03
2019-01-08T04:07:29.799Z,-5.06
2019-01-08T04:08:01.181Z,-5.11
2019-01-08T04:08:40.408Z,-5.14
2019-01-08T04:09:14.122Z,-5.16
2019-01-08T04:09:45.459Z,-5.17
2019-01-08T04:10:16.761Z,-5.17
2019-01-08T04:10:48.183Z,-5.21
2019-01-08T04:11:20.012Z,-5.21
2019-01-08T04:11:52.867Z,-5.23
2019-01-08T04:12:32.237Z,-5.28
2019-01-08T04:13:04.990Z,-5.36
2019-01-08T04:13:45.948Z,-5.43
2019-01-08T04:14:53.741Z,-5.52
2019-01-08T04:15:25.531Z,-5.57
2019-01-08T04:15:57.047Z,-5.58
2019-01-08T04:16:29.464Z,-5.60
2019-01-08T04:17:00.894Z,-5.61
2019-01-08T04:17:32.172Z,-5.63
2019-01-08T04:18:03.411Z,-5.65
2019-01-08T04:18:34.669Z,-5.69
2019-01-08T04:19:05.925Z,-5.70
2019-01-08T04:19:37.163Z,-5.68
2019-01-08T04:20:08.403Z,-5.69
2019-01-08T04:20:39.627Z,-5.71
2019-01-08T04:21:10.826Z,-5.68
2019-01-08T04:21:42.121Z,-6.85
2019-01-08T04:22:13.302Z,-5.65
2019-01-08T04:22:44.530Z,-5.68
2019-01-08T04:23:15.737Z,-5.72
2019-01-08T04:23:46.974Z,-5.72
2019-01-08T04:24:18.232Z,-5.73
2019-01-08T04:24:49.511Z,-5.77
2019-01-08T04:25:20.703Z,-5.80
2019-01-08T04:25:51.948Z,-5.85
2019-01-08T04:26:24.044Z,-5.83
2019-01-08T04:26:55.282Z,-5.82
2019-01-08T04:27:26.541Z,-5.78
2019-01-08T04:27:57.767Z,-5.78
2019-01-08T04:28:28.979Z,-5.80
2019-01-08T04:29:00.166Z,-5.85
2019-01-08T04:29:31.405Z,-5.88
2019-01-08T04:30:02.653Z,-5.83
2019-01-08T04:30:33.865Z,-5.82
2019-01-08T04:31:05.078Z,-5.84
2019-01-08T04:31:36.277Z,-5.83
2019-01-08T04:32:07.480Z,-5.81
2019-01-08T04:32:38.678Z,-5.84
2019-01-08T04:33:09.897Z,-5.88
2019-01-08T04:33:41.124Z,-5.87
2019-01-08T04:34:12.350Z,-5.88
2019-01-08T04:34:43.583Z,-5.91
2019-01-08T04:35:14.780Z,-5.92
2019-01-08T04:35:45.994Z,-5.94
2019-01-08T04:36:17.203Z,-5.94
2019-01-08T04:36:48.385Z,-5.91
2019-01-08T04:37:19.600Z,-5.92
2019-01-08T04:37:50.812Z,-5.92
2019-01-08T04:38:22.035Z,-5.91
2019-01-08T04:38:53.225Z,-5.97
2019-01-08T04:39:25.058Z,-5.96
2019-01-08T05:08:19.774Z,-6.15
2019-01-08T05:08:50.993Z,-6.11
2019-01-08T05:09:22.213Z,-6.08
2019-01-08T05:23:28.339Z,-5.87
2019-01-08T05:23:59.584Z,-5.88
2019-01-08T05:24:30.809Z,-5.87
2019-01-08T05:27:48.477Z,-5.82
2019-01-08T05:28:19.655Z,-5.81
2019-01-08T05:30:32.192Z,-5.78
2019-01-08T05:51:42.653Z,-6.07
2019-01-08T05:52:13.853Z,-6.08
2019-01-08T05:52:45.091Z,-6.10
2019-01-08T05:53:16.321Z,-6.09
2019-01-08T05:53:47.540Z,-6.09
2019-01-08T05:54:18.756Z,-6.07
2019-01-08T05:54:49.976Z,-6.07
2019-01-08T05:55:21.148Z,-6.05
2019-01-08T06:05:24.041Z,-6.04
2019-01-08T06:05:55.235Z,-6.01
2019-01-08T06:06:26.439Z,-6.01
2019-01-08T06:06:57.727Z,-6.00
2019-01-08T06:07:28.937Z,-6.00
2019-01-08T06:08:00.125Z,-5.97
2019-01-08T06:08:31.312Z,-5.97
2019-01-08T06:09:02.512Z,-5.95
2019-01-08T06:09:33.709Z,-5.91
2019-01-08T06:10:04.906Z,-5.84
2019-01-08T06:10:36.162Z,-5.82
2019-01-08T06:11:07.348Z,-5.81
2019-01-08T06:11:38.593Z,-5.80
2019-01-08T06:12:09.812Z,-5.83
2019-01-08T06:12:41.040Z,-5.85
2019-01-08T06:13:12.206Z,-5.85
2019-01-08T06:13:43.413Z,-5.82
2019-01-08T06:14:14.649Z,-5.77
2019-01-08T06:14:45.852Z,-5.72
2019-01-08T06:15:17.090Z,-5.72
2019-01-08T06:15:48.309Z,-5.72
2019-01-08T06:16:19.484Z,-5.76
2019-01-08T06:16:50.703Z,-5.75
2019-01-08T06:17:21.907Z,-5.75
2019-01-08T06:17:53.100Z,-5.77
2019-01-08T06:18:24.282Z,-5.77
2019-01-08T06:18:55.459Z,-5.75
2019-01-08T06:19:26.743Z,-5.70
2019-01-08T06:19:58.052Z,-5.69
2019-01-08T06:20:29.256Z,-5.71
2019-01-08T06:21:00.854Z,-5.72
2019-01-08T06:21:32.019Z,-5.68
2019-01-08T06:22:03.335Z,-5.68
2019-01-08T06:22:34.512Z,-5.67
2019-01-08T06:23:05.770Z,-5.65
2019-01-08T06:23:36.978Z,-5.63
2019-01-08T06:24:08.250Z,-5.63
2019-01-08T06:24:39.458Z,-5.64
2019-01-08T06:25:10.669Z,-5.62
2019-01-08T06:25:41.871Z,-5.66
2019-01-08T06:26:13.058Z,-5.68
2019-01-08T06:26:44.305Z,-5.67
2019-01-08T06:27:15.509Z,-5.68
2019-01-08T06:27:46.774Z,-5.68
2019-01-08T06:28:18.014Z,-5.65
2019-01-08T06:28:49.219Z,-5.62
2019-01-08T06:29:20.549Z,-5.57
2019-01-08T06:29:51.789Z,-5.53
2019-01-08T06:30:24.797Z,-5.55
2019-01-08T06:31:36.297Z,-5.58
2019-01-08T06:32:07.511Z,-5.56
2019-01-08T06:32:38.862Z,-5.56
2019-01-08T06:33:10.119Z,-5.55
2019-01-08T06:33:41.349Z,-5.51
2019-01-08T06:35:30.492Z,-5.49
2019-01-08T06:53:34.862Z,-5.00
2019-01-08T06:54:06.042Z,-4.96
2019-01-08T06:54:37.228Z,-6.24
2019-01-08T06:55:08.394Z,-4.97
2019-01-08T06:55:39.672Z,-4.99
2019-01-08T06:56:10.856Z,-4.93
2019-01-08T06:56:42.076Z,-4.85
2019-01-08T06:57:13.266Z,-4.83
2019-01-08T06:57:44.544Z,-4.77
2019-01-08T06:58:15.751Z,-4.74
2019-01-08T06:58:46.934Z,-4.69
2019-01-08T06:59:18.142Z,-4.62
2019-01-08T06:59:49.397Z,-4.59
2019-01-08T07:00:20.568Z,-4.55
2019-01-08T07:00:51.745Z,-4.52
2019-01-08T07:01:22.929Z,-4.51
2019-01-08T07:01:54.127Z,-4.49
2019-01-08T07:02:25.337Z,-4.51
2019-01-08T07:02:56.544Z,-4.50
2019-01-08T07:03:27.775Z,-4.46
2019-01-08T07:03:59.015Z,-6.02
2019-01-08T07:04:30.195Z,-4.38
2019-01-08T07:05:01.374Z,-4.32
2019-01-08T07:05:32.586Z,-4.21
2019-01-08T07:06:03.779Z,-4.20
2019-01-08T07:06:34.965Z,-4.17
2019-01-08T07:07:06.150Z,-4.12
2019-01-08T07:07:37.338Z,-4.07
2019-01-08T07:08:08.642Z,-4.01
2019-01-08T07:08:39.874Z,-3.98
2019-01-08T07:09:11.107Z,-3.99
2019-01-08T07:09:42.292Z,-3.99
2019-01-08T07:10:13.550Z,-3.94
2019-01-08T07:10:44.756Z,-3.89
2019-01-08T07:11:15.968Z,-3.95
2019-01-08T07:11:47.134Z,-3.91
2019-01-08T07:12:18.359Z,-3.88
2019-01-08T07:12:49.536Z,-3.69
2019-01-08T07:13:20.698Z,-3.62
2019-01-08T07:13:51.892Z,-3.55
2019-01-08T07:14:23.093Z,-5.00
2019-01-08T07:20:23.988Z,-3.90
2019-01-08T07:20:55.203Z,-3.81
2019-01-08T07:21:26.395Z,-3.62
2019-01-08T07:21:57.583Z,-3.37
2019-01-08T07:22:28.806Z,-3.33
2019-01-08T07:23:00.031Z,-3.38
2019-01-08T07:23:31.301Z,-3.38
2019-01-08T07:24:02.601Z,-3.45
2019-01-08T07:24:33.792Z,-3.41
2019-01-08T07:25:04.978Z,-3.32
2019-01-08T07:25:42.161Z,-3.27
2019-01-08T07:26:09.112Z,-3.21
2019-01-08T07:26:40.295Z,-3.23
2019-01-08T07:27:16.317Z,-3.18
2019-01-08T07:27:44.390Z,-3.03
2019-01-08T07:28:15.585Z,-2.95
2019-01-08T07:28:46.822Z,-2.94
2019-01-08T07:29:18.256Z,-2.97
2019-01-08T07:29:49.438Z,-3.03
2019-01-08T07:30:20.621Z,-3.04
2019-01-08T07:30:51.857Z,-3.10
2019-01-08T07:31:23.048Z,-3.15
2019-01-08T07:31:54.293Z,-3.19
2019-01-08T07:32:25.483Z,-3.15
2019-01-08T07:32:56.652Z,-3.07
2019-01-08T07:33:27.844Z,-2.93
2019-01-08T07:33:59.050Z,-2.88
2019-01-08T07:34:30.272Z,-2.88
2019-01-08T07:35:01.526Z,-2.97
2019-01-08T07:35:32.751Z,-2.89
2019-01-08T07:36:04.003Z,-2.85
2019-01-08T07:36:35.189Z,-3.02
2019-01-08T07:37:06.379Z,-3.09
2019-01-08T07:37:37.566Z,-3.09
2019-01-08T07:38:08.748Z,-3.17
2019-01-08T07:38:39.941Z,-3.23
2019-01-08T07:39:11.121Z,-3.38
2019-01-08T07:39:42.198Z,-3.54
2019-01-08T07:40:13.386Z,-3.63
2019-01-08T07:40:44.586Z,-3.74
2019-01-08T07:41:15.757Z,-3.76
2019-01-08T07:41:46.954Z,-3.77
2019-01-08T07:42:18.129Z,-3.72
2019-01-08T07:42:49.347Z,-3.73
2019-01-08T07:43:20.526Z,-3.77
2019-01-08T07:43:51.696Z,-3.73
2019-01-08T07:44:22.940Z,-3.61
2019-01-08T07:44:54.130Z,-3.50
2019-01-08T07:45:25.396Z,-3.43
2019-01-08T07:45:56.627Z,-3.44
2019-01-08T07:46:27.755Z,-3.32
2019-01-08T07:46:58.948Z,-3.33
2019-01-08T07:47:30.118Z,-3.38
2019-01-08T07:48:01.304Z,-3.42
2019-01-08T07:48:32.494Z,-3.45
2019-01-08T07:49:03.683Z,-3.38
2019-01-08T07:49:34.863Z,-3.21
2019-01-08T07:50:06.066Z,-2.95
2019-01-08T07:50:37.296Z,-2.70
2019-01-08T07:51:08.493Z,-2.47
2019-01-08T07:51:39.681Z,-2.44
2019-01-08T07:52:10.851Z,-2.56
2019-01-08T07:52:42.056Z,-2.40
2019-01-08T07:53:13.256Z,-2.49
2019-01-08T07:53:44.444Z,-2.63
2019-01-08T07:54:15.656Z,-2.66
2019-01-08T07:54:46.871Z,-2.77
2019-01-08T07:55:18.077Z,-2.89
2019-01-08T07:55:49.325Z,-2.74
2019-01-08T07:56:20.494Z,-2.73
2019-01-08T07:56:51.662Z,-2.82
2019-01-08T07:57:22.908Z,-2.82
2019-01-08T07:57:54.109Z,-2.68
2019-01-08T07:58:25.277Z,-2.60
2019-01-08T07:58:56.552Z,-2.50
2019-01-08T07:59:27.762Z,-2.63
2019-01-08T07:59:58.999Z,-2.72
2019-01-08T08:00:30.200Z,-2.75
2019-01-08T08:01:01.442Z,-2.72
2019-01-08T08:01:32.617Z,-2.67
2019-01-08T08:02:03.835Z,-2.50
2019-01-08T08:02:35.051Z,-2.41
2019-01-08T08:03:06.219Z,-2.39
2019-01-08T08:03:37.414Z,-2.35
2019-01-08T08:04:08.613Z,-2.34
2019-01-08T08:04:47.295Z,-2.40
2019-01-08T08:05:13.348Z,-2.50
2019-01-08T08:05:44.580Z,-2.50
2019-01-08T08:06:15.793Z,-2.53
2019-01-08T08:06:47.008Z,-2.56
2019-01-08T08:07:18.207Z,-2.46
2019-01-08T08:07:49.414Z,-2.43
2019-01-08T08:08:20.599Z,-2.46
2019-01-08T08:08:51.809Z,-2.50
2019-01-08T08:09:23.040Z,-2.52
2019-01-08T08:09:54.262Z,-2.62
2019-01-08T08:10:25.480Z,-2.76
2019-01-08T08:10:56.690Z,-2.87
2019-01-08T08:11:28.056Z,-2.92
2019-01-08T08:11:59.273Z,-4.19
2019-01-08T08:12:30.504Z,-2.98
2019-01-08T08:13:01.763Z,-3.05
2019-01-08T08:13:32.979Z,-3.08
2019-01-08T08:14:04.158Z,-3.19
2019-01-08T08:14:35.377Z,-3.08
2019-01-08T08:15:06.564Z,-3.18
2019-01-08T08:15:37.892Z,-3.24
2019-01-08T08:16:09.046Z,-3.11
2019-01-08T08:16:40.227Z,-3.05
2019-01-08T08:17:11.486Z,-3.09
2019-01-08T08:17:42.738Z,-3.01
2019-01-08T08:18:13.915Z,-2.98
2019-01-08T08:18:45.138Z,-2.84
2019-01-08T08:19:16.344Z,-2.91
2019-01-08T08:19:47.530Z,-2.96
2019-01-08T08:20:18.711Z,-3.00
2019-01-08T08:20:49.921Z,-3.09
2019-01-08T08:21:21.132Z,-3.13
2019-01-08T08:21:52.365Z,-2.88
2019-01-08T08:22:23.546Z,-2.72
2019-01-08T08:22:54.717Z,-2.71
2019-01-08T08:23:25.936Z,-2.76
2019-01-08T08:23:57.134Z,-2.86
2019-01-08T08:24:28.397Z,-2.78
2019-01-08T08:24:59.554Z,-2.82
2019-01-08T08:25:30.717Z,-3.80
2019-01-08T08:26:02.781Z,-2.91
2019-01-08T08:26:33.986Z,-2.92
2019-01-08T08:27:05.230Z,-2.87
2019-01-08T08:27:36.475Z,-2.60
2019-01-08T08:28:07.677Z,-2.39
2019-01-08T08:28:38.900Z,-2.25
2019-01-08T08:29:10.078Z,-2.16
2019-01-08T08:29:41.259Z,-2.17
2019-01-08T08:30:12.493Z,-2.27
2019-01-08T08:30:43.686Z,-2.31
2019-01-08T08:31:14.864Z,-2.36
2019-01-08T08:31:46.058Z,-2.31
2019-01-08T08:32:17.224Z,-2.10
2019-01-08T08:32:48.410Z,-2.11
2019-01-08T08:33:19.651Z,-2.09
2019-01-08T08:33:50.851Z,-2.14
2019-01-08T08:34:22.034Z,-2.15
2019-01-08T08:34:53.247Z,-2.21
2019-01-08T08:35:24.434Z,-2.22
2019-01-08T08:35:55.604Z,-2.06
2019-01-08T08:36:26.775Z,-1.99
2019-01-08T08:36:57.965Z,-1.98
2019-01-08T08:37:29.203Z,-1.65
2019-01-08T08:38:02.403Z,-1.51
2019-01-08T08:38:33.594Z,-1.28
2019-01-08T08:39:04.795Z,-0.92
2019-01-08T08:39:36.007Z,-2.15
2019-01-08T08:40:07.268Z,-0.29
2019-01-08T08:40:38.398Z,-0.24
2019-01-08T08:41:09.580Z,-0.38
2019-01-08T08:41:41.057Z,-0.60
2019-01-08T08:42:12.279Z,-0.81
2019-01-08T08:42:43.531Z,-0.77
2019-01-08T08:43:14.700Z,-0.63
2019-01-08T08:43:45.883Z,-0.60
2019-01-08T08:44:17.083Z,-0.76
2019-01-08T08:44:48.292Z,-1.02
2019-01-08T08:45:19.499Z,-0.99
2019-01-08T08:45:50.738Z,-1.09
2019-01-08T08:46:21.980Z,-1.45
2019-01-08T08:46:53.050Z,-1.77
2019-01-08T08:47:24.287Z,-1.98
2019-01-08T08:47:55.475Z,-2.02
2019-01-08T08:48:26.669Z,-2.03
2019-01-08T08:48:57.850Z,-3.23
2019-01-08T08:49:29.018Z,-1.89
2019-01-08T08:50:00.215Z,-1.92
2019-01-08T08:50:31.481Z,-1.89
2019-01-08T08:51:02.746Z,-2.03
2019-01-08T08:51:33.935Z,-2.22
2019-01-08T08:52:05.111Z,-2.20
2019-01-08T08:52:36.307Z,-2.16
2019-01-08T08:53:07.497Z,-2.18
2019-01-08T08:53:38.938Z,-2.10
2019-01-08T08:54:10.122Z,-2.07
2019-01-08T08:54:41.322Z,-1.96
2019-01-08T08:55:12.508Z,-1.92
2019-01-08T08:55:43.680Z,-1.86
2019-01-08T08:56:14.895Z,-1.79
2019-01-08T08:56:46.092Z,-3.21
2019-01-08T08:57:17.324Z,-1.65
2019-01-08T08:57:48.552Z,-1.52
2019-01-08T08:58:19.744Z,-1.47
2019-01-08T08:58:50.929Z,-1.47
2019-01-08T08:59:22.118Z,-1.25
2019-01-08T08:59:53.314Z,-1.29
2019-01-08T09:00:24.497Z,-1.50
2019-01-08T09:00:55.736Z,-1.56
2019-01-08T09:01:26.915Z,-1.52
2019-01-08T09:01:58.107Z,-1.67
2019-01-08T09:16:34.702Z,-1.24
2019-01-08T09:17:05.913Z,-1.00
2019-01-08T09:17:37.154Z,-0.91
2019-01-08T09:18:08.370Z,-0.83
2019-01-08T09:18:39.556Z,-0.79
2019-01-08T09:19:10.744Z,-0.95
2019-01-08T09:19:41.929Z,-1.11
2019-01-08T09:20:13.109Z,-1.18
2019-01-08T09:20:44.309Z,-1.27
2019-01-08T09:21:15.528Z,-1.38
2019-01-08T09:21:46.701Z,-1.47
2019-01-08T09:22:17.879Z,-1.51
2019-01-08T09:22:49.113Z,-1.42
2019-01-08T09:23:20.330Z,-1.38
2019-01-08T09:23:51.569Z,-1.44
2019-01-08T09:24:22.773Z,-1.27
2019-01-08T09:24:54.040Z,-0.98
2019-01-08T09:25:25.215Z,-0.86
2019-01-08T09:25:56.414Z,-0.98
2019-01-08T09:26:27.602Z,-1.01
2019-01-08T09:26:58.797Z,-2.10
2019-01-08T09:27:29.979Z,-0.79
2019-01-08T09:28:01.190Z,-0.73
2019-01-08T09:28:32.369Z,-0.86
2019-01-08T09:29:03.558Z,-0.91
2019-01-08T09:29:34.787Z,-0.98
2019-01-08T09:30:05.967Z,-0.93
2019-01-08T09:30:37.217Z,-0.95
2019-01-08T09:31:15.296Z,-0.66
2019-01-08T09:31:41.310Z,-0.41
2019-01-08T09:32:12.483Z,-0.38
2019-01-08T09:32:43.673Z,-0.38
2019-01-08T09:33:14.861Z,-0.62
2019-01-08T09:33:46.056Z,-0.71
2019-01-08T09:34:17.238Z,-0.67
2019-01-08T09:34:48.486Z,-0.84
2019-01-08T09:35:19.700Z,-1.13
2019-01-08T09:35:50.915Z,-1.23
2019-01-08T09:36:22.125Z,-1.27
2019-01-08T09:36:53.324Z,-1.31
2019-01-08T09:37:24.538Z,-1.31
2019-01-08T09:37:55.766Z,-1.24
2019-01-08T09:38:27.051Z,-1.20
2019-01-08T09:38:58.239Z,-1.30
2019-01-08T09:39:29.424Z,-1.26
2019-01-08T09:40:00.632Z,-1.23
2019-01-08T09:40:31.861Z,-0.95
2019-01-08T09:41:03.066Z,-0.78
2019-01-08T09:58:21.150Z,0.25
2019-01-08T09:58:52.314Z,0.20
2019-01-08T09:59:23.489Z,0.07
2019-01-08T09:59:54.657Z,-0.17
2019-01-08T10:00:25.844Z,-0.28
2019-01-08T10:00:57.016Z,-0.23
2019-01-08T10:01:28.199Z,-0.48
2019-01-08T10:01:59.382Z,-0.31
2019-01-08T10:02:30.617Z,-0.02
2019-01-08T10:03:01.835Z,-0.01
2019-01-08T10:03:33.020Z,-0.01
2019-01-08T10:04:04.194Z,-0.07
2019-01-08T10:09:26.765Z,-0.67
2019-01-08T10:09:57.974Z,-0.71
2019-01-08T10:10:29.217Z,-0.70
2019-01-08T10:11:00.397Z,-0.59
2019-01-08T10:11:31.629Z,-0.48
2019-01-08T10:12:02.835Z,-0.35
2019-01-08T10:12:34.024Z,-0.23
2019-01-08T10:13:05.207Z,-0.25
2019-01-08T10:13:36.448Z,0.02
2019-01-08T10:14:07.665Z,0.02
2019-01-08T10:14:38.852Z,0.00
2019-01-08T10:15:10.054Z,-0.04
2019-01-08T10:20:47.721Z,-0.13
2019-01-08T10:21:18.908Z,0.09
2019-01-08T10:21:50.083Z,0.20
2019-01-08T10:24:51.676Z,-0.02
2019-01-08T10:25:22.847Z,0.12
2019-01-08T10:25:54.045Z,0.12
2019-01-08T10:26:25.211Z,0.21
2019-01-08T10:26:56.416Z,0.41
2019-01-08T10:27:27.597Z,0.47
2019-01-08T10:27:58.832Z,0.47
2019-01-08T10:28:29.987Z,0.57
2019-01-08T10:29:01.164Z,0.59
2019-01-08T10:29:32.377Z,0.35
2019-01-08T10:30:03.579Z,0.62
2019-01-08T10:30:34.765Z,0.58
2019-01-08T10:31:05.948Z,0.56
2019-01-08T10:31:37.110Z,0.65
2019-01-08T10:32:08.282Z,0.66
2019-01-08T10:32:39.472Z,0.74
2019-01-08T10:33:10.644Z,0.97
2019-01-08T10:33:41.802Z,0.98
2019-01-08T10:34:15.294Z,0.85
2019-01-08T10:34:46.477Z,0.81
2019-01-08T10:35:17.662Z,0.77
2019-01-08T10:35:48.822Z,0.64
2019-01-08T10:36:20.007Z,0.61
2019-01-08T10:36:51.171Z,0.56
2019-01-08T10:37:22.350Z,0.49
2019-01-08T10:37:53.546Z,0.37
2019-01-08T10:38:24.737Z,0.27
2019-01-08T10:38:55.939Z,0.25
2019-01-08T10:39:27.150Z,0.26
2019-01-08T10:39:58.340Z,0.22
2019-01-08T10:40:29.520Z,0.22
2019-01-08T10:41:00.685Z,0.20
2019-01-08T10:41:31.863Z,0.14
2019-01-08T10:42:03.036Z,0.12
2019-01-08T10:42:34.262Z,0.18
2019-01-08T10:43:05.452Z,0.31
2019-01-08T10:43:36.626Z,0.47
2019-01-08T10:44:07.791Z,0.61
2019-01-08T10:44:39.022Z,0.75
2019-01-08T10:45:10.232Z,0.81
2019-01-08T10:45:41.419Z,0.86
2019-01-08T10:46:12.587Z,0.95
2019-01-08T10:46:43.808Z,1.02
2019-01-08T10:49:28.538Z,0.80
2019-01-08T10:49:59.734Z,0.95
2019-01-08T10:50:30.999Z,1.13
2019-01-08T10:51:02.208Z,1.31
2019-01-08T10:51:36.359Z,1.41
2019-01-08T10:52:07.689Z,1.43
2019-01-08T10:52:38.935Z,1.64
2019-01-08T10:53:10.144Z,1.77
2019-01-08T10:53:41.352Z,1.93
2019-01-08T10:54:12.597Z,1.99
2019-01-08T10:54:46.874Z,2.08
2019-01-08T10:55:18.085Z,2.13
2019-01-08T10:55:49.255Z,2.27
2019-01-08T10:56:20.448Z,2.30
2019-01-08T10:56:51.636Z,2.15
2019-01-08T10:57:22.907Z,2.04
2019-01-08T10:57:54.100Z,1.84
2019-01-08T10:58:25.277Z,1.68
2019-01-08T10:58:56.457Z,1.68
2019-01-08T10:59:27.670Z,1.81
2019-01-08T10:59:58.870Z,1.91
2019-01-08T11:04:23.842Z,2.67
2019-01-08T11:04:55.026Z,2.57
2019-01-08T11:05:26.176Z,2.21
2019-01-08T11:05:57.385Z,2.00
2019-01-08T11:06:28.606Z,1.97
2019-01-08T11:06:59.757Z,1.87
2019-01-08T11:07:30.911Z,1.78
2019-01-08T11:08:02.076Z,1.73
2019-01-08T11:08:33.251Z,1.56
2019-01-08T11:09:04.437Z,1.54
2019-01-08T11:09:35.611Z,1.52
2019-01-08T11:10:06.784Z,1.47
2019-01-08T11:10:38.322Z,1.51
2019-01-08T11:11:09.521Z,1.68
2019-01-08T11:11:40.721Z,1.72
2019-01-08T11:12:11.964Z,1.67
2019-01-08T11:12:43.148Z,1.64
2019-01-08T11:13:14.358Z,1.62
2019-01-08T11:13:45.513Z,1.67
2019-01-08T11:14:16.747Z,1.68
2019-01-08T11:14:47.962Z,1.70
2019-01-08T11:15:19.179Z,1.57
2019-01-08T11:15:50.416Z,1.39
2019-01-08T11:16:21.598Z,1.13
2019-01-08T11:16:52.791Z,0.99
2019-01-08T11:17:23.983Z,1.05
2019-01-08T11:17:55.157Z,1.09
2019-01-08T11:18:26.320Z,0.99
2019-01-08T11:18:57.532Z,0.91
2019-01-08T11:19:28.716Z,0.74
2019-01-08T11:19:59.915Z,0.59
2019-01-08T11:20:31.118Z,0.51
2019-01-08T11:21:02.343Z,0.53
2019-01-08T11:21:33.568Z,0.53
2019-01-08T11:22:04.767Z,0.56
2019-01-08T11:22:35.934Z,0.61
2019-01-08T11:23:07.144Z,0.62
2019-01-08T11:23:38.306Z,0.78
2019-01-08T11:24:09.493Z,0.87
2019-01-08T11:24:40.704Z,0.96
2019-01-08T11:25:11.917Z,1.00
2019-01-08T11:25:43.122Z,1.04
2019-01-08T11:26:14.290Z,1.08
2019-01-08T11:26:45.509Z,1.08
2019-01-08T11:27:16.686Z,1.01
2019-01-08T11:27:47.866Z,1.03
2019-01-08T11:28:19.054Z,1.04
2019-01-08T11:28:50.230Z,1.07
2019-01-08T11:29:21.422Z,1.11
2019-01-08T11:29:52.590Z,1.27
2019-01-08T11:40:50.284Z,0.81
2019-01-08T11:41:21.451Z,1.68
2019-01-08T11:41:52.615Z,1.76
2019-01-08T11:42:23.781Z,1.76
2019-01-08T11:42:54.961Z,1.77
2019-01-08T11:43:26.160Z,1.77
2019-01-08T11:43:57.333Z,1.76
2019-01-08T11:44:28.601Z,1.75
2019-01-08T11:44:59.762Z,1.78
2019-01-08T11:45:30.921Z,1.77
2019-01-08T11:46:02.117Z,1.81
2019-01-08T11:46:33.287Z,1.98
2019-01-08T11:47:04.469Z,2.14
2019-01-08T11:47:35.634Z,2.27
2019-01-08T11:48:06.840Z,2.38
2019-01-08T11:48:38.004Z,2.41
2019-01-08T11:49:09.180Z,2.48
2019-01-08T11:49:40.353Z,2.45
2019-01-08T11:50:11.524Z,2.30
2019-01-08T11:50:42.739Z,2.33
2019-01-08T11:51:13.930Z,2.34
2019-01-08T11:51:45.112Z,2.22
2019-01-08T11:52:16.275Z,2.17
2019-01-08T11:52:48.013Z,2.18
2019-01-08T11:53:20.407Z,2.26
2019-01-08T11:53:51.556Z,2.21
2019-01-08T11:54:22.798Z,2.08
2019-01-08T11:54:53.989Z,2.03
2019-01-08T11:55:25.208Z,1.97
2019-01-08T11:55:56.514Z,1.98
2019-01-08T11:56:27.731Z,2.00
2019-01-08T11:56:58.909Z,2.04
2019-01-08T11:57:30.134Z,2.04
2019-01-08T11:58:01.319Z,2.10
2019-01-08T11:58:32.500Z,2.16
2019-01-08T11:59:03.692Z,2.22
2019-01-08T11:59:34.849Z,2.20
2019-01-08T12:00:06.390Z,2.34
2019-01-08T12:00:37.614Z,2.51
2019-01-08T12:01:08.783Z,2.69
2019-01-08T12:01:39.943Z,2.87
2019-01-08T12:02:11.161Z,2.89
2019-01-08T12:02:47.732Z,2.92
2019-01-08T12:03:15.307Z,2.88
2019-01-08T12:03:46.484Z,2.74
2019-01-08T12:04:17.643Z,2.81
2019-01-08T12:04:48.811Z,2.85
2019-01-08T12:05:20.051Z,2.94
2019-01-08T12:05:51.275Z,1.32
2019-01-08T12:06:22.440Z,3.14
2019-01-08T12:06:53.627Z,3.22
2019-01-08T12:07:31.095Z,3.28
2019-01-08T12:07:57.723Z,3.40
2019-01-08T12:08:28.914Z,3.49
2019-01-08T12:09:00.079Z,3.55
2019-01-08T12:09:31.324Z,3.51
2019-01-08T12:10:02.517Z,3.49
2019-01-08T12:10:33.728Z,3.42
2019-01-08T12:11:04.905Z,3.50
2019-01-08T12:11:36.110Z,3.44
2019-01-08T12:12:07.283Z,3.41
2019-01-08T12:12:38.499Z,3.30
2019-01-08T12:13:09.737Z,3.33
2019-01-08T12:13:40.956Z,3.18
2019-01-08T12:14:12.168Z,3.16
2019-01-08T12:14:43.389Z,3.15
2019-01-08T12:15:14.611Z,3.10
2019-01-08T12:15:45.808Z,3.06
2019-01-08T12:16:16.971Z,3.04
2019-01-08T12:16:48.165Z,3.04
2019-01-08T12:17:19.339Z,3.13
2019-01-08T12:17:50.537Z,3.03
2019-01-08T12:18:21.753Z,2.85
2019-01-08T12:18:52.927Z,2.80
2019-01-08T12:19:24.108Z,2.74
2019-01-08T12:19:55.303Z,2.66
2019-01-08T12:20:26.519Z,2.58
2019-01-08T12:22:42.435Z,2.58
2019-01-08T12:23:13.671Z,2.45
2019-01-08T12:23:44.934Z,2.40
2019-01-08T12:24:16.175Z,2.35
2019-01-08T12:24:47.381Z,0.32
2019-01-08T12:25:18.593Z,2.41
2019-01-08T12:25:49.790Z,2.51
2019-01-08T12:26:20.970Z,2.53
2019-01-08T12:26:52.161Z,2.54
2019-01-08T12:27:23.332Z,2.65
2019-01-08T12:27:54.503Z,2.68
2019-01-08T12:28:25.793Z,2.65
2019-01-08T12:28:56.954Z,2.71
2019-01-08T12:29:28.122Z,2.83
2019-01-08T12:29:59.320Z,2.92
2019-01-08T12:30:30.561Z,3.04
2019-01-08T12:31:01.808Z,3.05
2019-01-08T12:31:32.978Z,3.07
2019-01-08T12:32:06.359Z,3.03
2019-01-08T12:32:37.020Z,3.02
2019-01-08T12:33:08.286Z,3.02
2019-01-08T12:33:39.450Z,3.00
2019-01-08T12:34:10.635Z,3.00
2019-01-08T12:34:41.791Z,2.98
2019-01-08T12:35:12.978Z,3.01
2019-01-08T12:35:44.142Z,3.14
2019-01-08T12:36:15.358Z,3.15
2019-01-08T12:36:46.529Z,3.36
2019-01-08T12:37:17.695Z,3.47
2019-01-08T12:37:48.877Z,3.56
2019-01-08T12:38:20.093Z,3.61
2019-01-08T12:38:51.323Z,3.74
2019-01-08T12:39:22.572Z,3.74
2019-01-08T12:39:53.749Z,3.68
2019-01-08T12:40:24.917Z,3.56
2019-01-08T12:40:56.102Z,2.14
2019-01-08T12:41:27.291Z,2.79
2019-01-08T12:41:58.496Z,3.40
2019-01-08T12:42:29.677Z,3.36
2019-01-08T12:43:00.841Z,3.26
2019-01-08T12:43:32.057Z,3.06
2019-01-08T12:44:03.251Z,2.97
2019-01-08T12:44:34.422Z,2.91
2019-01-08T12:45:05.590Z,2.92
2019-01-08T12:45:36.761Z,2.86
2019-01-08T12:46:08.313Z,2.85
2019-01-08T12:46:39.524Z,2.38
2019-01-08T12:47:10.725Z,2.78
2019-01-08T12:47:41.938Z,2.77
2019-01-08T12:48:13.169Z,2.70
2019-01-08T12:48:44.347Z,2.60
2019-01-08T12:49:15.509Z,2.54
2019-01-08T12:49:46.697Z,1.56
2019-01-08T12:50:17.902Z,2.53
2019-01-08T12:50:49.198Z,2.51
2019-01-08T12:51:20.346Z,2.48
2019-01-08T12:51:51.588Z,2.49
2019-01-08T12:52:22.762Z,2.52
2019-01-08T12:52:53.939Z,2.56
2019-01-08T12:53:25.111Z,2.62
2019-01-08T12:53:56.373Z,2.71
2019-01-08T12:54:27.555Z,2.77
2019-01-08T12:54:58.761Z,2.78
2019-01-08T12:55:29.963Z,2.81
2019-01-08T12:56:01.201Z,2.80
2019-01-08T12:56:32.379Z,2.78
2019-01-08T12:57:03.590Z,2.78
2019-01-08T12:57:34.830Z,2.74
2019-01-08T12:58:06.013Z,2.77
2019-01-08T12:58:37.252Z,2.85
2019-01-08T12:59:08.482Z,2.73
2019-01-08T12:59:39.659Z,2.57
2019-01-08T13:00:10.856Z,2.49
2019-01-08T13:00:42.032Z,2.47
2019-01-08T13:01:13.272Z,2.53
2019-01-08T13:01:44.428Z,2.61
2019-01-08T13:02:15.672Z,2.62
2019-01-08T13:02:46.861Z,2.58
2019-01-08T13:03:18.052Z,2.54
2019-01-08T13:03:49.308Z,2.44
2019-01-08T13:04:20.494Z,2.45
2019-01-08T13:04:51.728Z,2.49
2019-01-08T13:05:22.944Z,2.53
2019-01-08T13:05:54.384Z,2.50
2019-01-08T13:06:25.623Z,2.56
2019-01-08T13:06:56.855Z,2.53
2019-01-08T13:07:28.036Z,2.51
2019-01-08T13:07:59.251Z,2.51
2019-01-08T13:08:30.494Z,2.46
2019-01-08T13:09:01.686Z,2.46
2019-01-08T13:09:32.887Z,2.47
2019-01-08T13:10:04.063Z,2.42
2019-01-08T13:10:35.265Z,2.38
2019-01-08T13:11:06.496Z,2.25
2019-01-08T13:11:37.719Z,2.17
2019-01-08T13:12:08.977Z,2.11
2019-01-08T13:12:40.150Z,2.10
2019-01-08T13:13:11.330Z,2.07
2019-01-08T13:13:42.595Z,2.03
2019-01-08T13:14:13.801Z,2.04
2019-01-08T13:14:44.962Z,2.03
2019-01-08T13:15:16.205Z,2.02
2019-01-08T13:15:47.407Z,2.06
2019-01-08T13:16:19.606Z,2.13
2019-01-08T13:16:50.846Z,2.23
2019-01-08T13:17:22.011Z,2.34
2019-01-08T13:17:53.289Z,2.42
2019-01-08T13:18:24.533Z,2.52
2019-01-08T13:18:55.753Z,2.58
2019-01-08T13:19:26.946Z,2.62
2019-01-08T13:19:58.196Z,2.62
2019-01-08T13:20:29.393Z,2.59
2019-01-08T13:21:00.621Z,2.60
2019-01-08T13:21:31.835Z,2.61
2019-01-08T13:22:03.023Z,2.54
2019-01-08T13:22:34.242Z,2.47
2019-01-08T13:23:05.408Z,2.44
2019-01-08T13:23:36.568Z,2.45
2019-01-08T13:24:07.763Z,2.46
2019-01-08T13:24:39.006Z,2.48
2019-01-08T13:25:10.264Z,2.44
2019-01-08T13:25:41.447Z,2.41
2019-01-08T13:26:12.685Z,2.37
2019-01-08T13:26:43.890Z,2.41
2019-01-08T13:27:15.133Z,2.47
2019-01-08T13:27:46.319Z,2.54
2019-01-08T13:28:17.480Z,2.57
2019-01-08T13:28:48.649Z,2.57
2019-01-08T13:29:19.881Z,2.59
2019-01-08T13:29:51.207Z,2.63
2019-01-08T13:30:22.383Z,2.68
2019-01-08T13:30:53.611Z,2.68
2019-01-08T13:33:09.561Z,2.65
2019-01-08T13:33:18.179Z,2.49
2019-01-08T13:33:49.325Z,2.49
2019-01-08T13:34:20.584Z,2.47
2019-01-08T13:34:51.757Z,2.46